Terminal Aerodrome Forecast
Issued by NWS Louisville, KY

Home | Current Version | Previous Version | Text Only | Print | Product List | Glossary On
Versions: 1 2 3 4 5 6 7 8 9 10 11 12 13 14 15 16
000
FTUS43 KLMK 270427 AAA
TAFBWG
TAF AMD
KBWG 270427Z 2704/2724 34003KT 4SM BR SKC
      TEMPO 2704/2708 1SM BR
     FM271600 29004KT P6SM SKC=

USA.gov is the U.S. government's official web portal to all federal, state and local government web resources and services.